Latest Coastal Weather Observations for Albany Airport

IDW60701

Issued at 2:03 pm WST Tuesday 21 November 2017 (issued every 10 minutes, with the page automatically refreshed every 10 minutes)

About coastal observations | Map of coastal stations | Coastal observations for WA | Marine services | Other Formats
Station Details ID: 009999 Name: ALBANY AIRPORT Lat: -34.94 Lon: 117.82 Height: 68.4 m
Data from the previous 72 hours. | See also: Recent months at Albany Airport
Date/Time
WST
Temp
°C
Wind Pressure Rain since
9am
mm
Weather Cloud Vis
km
Sea
Height
m
Swell
Dir  Spd
kts
Gust
kts
hPa Trend Height
m
Period
s
Dir
21/02:00pm 18.2 S 9 14 1020.8 - 0.0 - Partly cloudy 10 - - - -
21/01:30pm 19.3 SSW 10 16 1020.9 - 0.0 - - 10 - - - -
21/01:00pm 18.1 S 10 15 1020.9 - 0.0 - Partly cloudy 10 - - - -
21/12:30pm 18.5 S 9 14 1020.8 - 0.0 - Partly cloudy 10 - - - -
21/12:00pm 18.8 SSW 11 19 1020.9 - 0.0 - Mostly clear 10 - - - -
21/11:30am 18.3 SSW 11 18 1021.1 - 0.0 - Partly cloudy 10 - - - -
21/11:00am 19.2 S 9 14 1021.0 - 0.0 - Partly cloudy 10 - - - -
21/10:30am 18.1 S 10 15 1021.2 - 0.0 - Partly cloudy 10 - - - -
21/10:00am 18.1 S 9 18 1021.0 - 0.0 - Partly cloudy 10 - - - -
21/09:30am 18.0 S 9 14 1020.8 - 0.0 - Partly cloudy 10 - - - -
21/09:00am 17.9 S 10 15 1020.9 - 0.0 - Mostly clear 10 - - - -
21/08:30am 17.3 SSW 11 17 1020.7 - 0.0 - - 10 - - - -
21/08:00am 17.1 S 11 15 1020.4 - 0.0 - Partly cloudy 10 - - - -
21/07:30am 16.0 SSW 10 14 1019.9 - 0.0 - Partly cloudy 10 - - - -
21/07:00am 16.1 SSW 10 14 1019.5 - 0.0 - Partly cloudy 10 - - - -
21/06:30am 15.5 S 7 12 1019.1 - 0.0 - Partly cloudy 10 - - - -
21/06:00am 14.4 S 4 5 1018.9 - 0.0 - Cloudy 10 - - - -
21/05:30am 13.8 SSW 4 5 1018.6 - 0.0 - Partly cloudy 10 - - - -
21/05:00am 13.6 SSW 5 6 1018.1 - 0.0 - Cloudy 10 - - - -
21/04:30am 14.0 SSW 5 7 1017.7 - 0.0 - Partly cloudy 10 - - - -
21/04:00am 14.1 SSW 6 9 1017.4 - 0.0 - Partly cloudy 10 - - - -
21/03:30am 13.9 SSW 5 7 1016.8 - 0.0 - Cloudy 10 - - - -
21/03:00am 14.1 S 4 6 1016.6 - 0.0 - Mostly cloudy 10 - - - -
21/02:30am 14.3 SSW 9 14 1016.6 - 0.0 - Partly cloudy 10 - - - -
21/02:00am 14.4 S 7 10 1016.3 - 0.0 - Cloudy 10 - - - -
21/01:30am 14.2 SSW 9 15 1016.1 - 0.0 - Partly cloudy 10 - - - -
21/01:00am 14.3 SSW 3 9 1015.9 - 0.0 - Partly cloudy 10 - - - -
21/12:30am 14.3 SSE 4 5 1015.9 - 0.0 - Partly cloudy 10 - - - -
21/12:00am 14.0 S 5 6 1016.1 - 0.0 - Partly cloudy 10 - - - -
 
Date/Time
WST
Temp
°C
Wind Pressure Rain since
9am
mm
Weather Cloud Vis
km
Sea
Height
m
Swell
Dir  Spd
kts
Gust
kts
hPa Trend Height
m
Period
s
Dir
20/11:30pm 14.4 S 5 9 1016.1 - 0.0 - Partly cloudy 10 - - - -
20/11:00pm 14.1 SSW 5 6 1016.3 - 0.0 - Partly cloudy 10 - - - -
20/10:30pm 14.6 SSW 6 8 1016.3 - 0.0 - Partly cloudy 10 - - - -
20/10:00pm 15.0 SSW 7 10 1016.1 - 0.0 - Partly cloudy 10 - - - -
20/09:30pm 15.4 SSW 8 10 1016.4 - 0.0 - Partly cloudy 10 - - - -
20/09:00pm 15.4 SW 9 11 1016.1 - 0.0 - Cloudy 10 - - - -
20/08:30pm 15.4 SW 9 11 1015.8 - 0.0 - Partly cloudy 10 - - - -
20/08:00pm 16.0 SW 9 13 1015.4 - 0.0 - Partly cloudy 10 - - - -
20/07:30pm 16.5 SW 9 13 1015.0 - 0.0 - Partly cloudy 10 - - - -
20/07:00pm 16.7 SW 9 13 1014.7 - 0.0 - Partly cloudy 10 - - - -
20/06:30pm 17.1 SW 13 18 1014.3 - 0.0 - Partly cloudy 10 - - - -
20/06:00pm 18.0 WSW 13 17 1013.9 - 0.0 - Partly cloudy 10 - - - -
20/05:30pm 19.3 WSW 14 20 1013.6 - 0.0 - Partly cloudy 10 - - - -
20/05:00pm 19.2 SW 16 23 1013.3 - 0.0 - Partly cloudy 10 - - - -
20/04:30pm 20.3 WSW 16 22 1013.0 - 0.0 - Partly cloudy 10 - - - -
20/04:00pm 20.7 WSW 12 17 1012.6 - 0.0 - Partly cloudy 10 - - - -
20/03:30pm 21.4 WSW 13 17 1012.4 - 0.0 - Cloudy 10 - - - -
20/03:00pm 21.7 SW 13 18 1012.2 - 0.0 - Partly cloudy 10 - - - -
20/02:30pm 22.5 SW 13 18 1012.1 - 0.0 - - 10 - - - -
20/02:00pm 23.8 SSW 13 17 1012.0 - 0.0 - - 10 - - - -
20/01:30pm 22.9 SW 13 22 1012.1 - 0.0 - Partly cloudy 10 - - - -
20/01:00pm 21.8 SW 11 18 1012.1 - 0.0 - Partly cloudy 10 - - - -
20/12:30pm 23.3 W 9 15 1012.1 - 0.0 - Partly cloudy 10 - - - -
20/12:00pm 22.7 WSW 9 14 1012.1 - 0.0 - Mostly cloudy 10 - - - -
20/11:30am 21.2 WSW 11 17 1012.4 - 0.0 - Partly cloudy 10 - - - -
20/11:00am 21.5 WSW 9 14 1012.5 - 0.0 - Partly cloudy 10 - - - -
20/10:30am 21.0 W 8 12 1012.7 - 0.0 - Partly cloudy 10 - - - -
20/10:00am 21.1 WSW 9 12 1012.8 - 0.0 - Partly cloudy 10 - - - -
20/09:30am 19.6 W 9 13 1012.7 - 0.0 - Partly cloudy 10 - - - -
20/09:00am 19.9 W 7 11 1012.7 - 0.4 - Partly cloudy 10 - - - -
20/08:30am 17.9 WSW 7 10 1012.9 - 0.4 - Cloudy 10 - - - -
20/08:00am 17.0 W 8 10 1012.9 - 0.4 - Cloudy 10 - - - -
20/07:30am 16.1 W 7 8 1012.8 - 0.4 - Cloudy 10 - - - -
20/07:00am 15.5 WNW 5 7 1012.7 - 0.4 - Cloudy 10 - - - -
20/06:30am 15.0 WNW 5 7 1012.8 - 0.4 - Cloudy 10 - - - -
20/06:00am 14.8 WNW 4 5 1012.6 - 0.4 - Cloudy 10 - - - -
20/05:30am 14.1 NW 2 4 1012.4 - 0.4 - Cloudy 10 - - - -
20/05:00am 14.1 NW 3 4 1012.2 - 0.4 - Partly cloudy 10 - - - -
20/04:45am 13.9 NNW 4 4 1012.2 - 0.4 - Partly cloudy 10 - - - -
20/04:30am 13.3 WNW 4 4 1011.9 - 0.4 - Partly cloudy 6 - - - -
20/04:26am 13.1 NW 3 4 1011.9 - 0.4 - Cloudy 6 - - - -
20/04:00am 14.1 NW 3 3 1011.6 - 0.4 - Partly cloudy 10 - - - -
20/03:36am 14.1 W 4 6 1011.7 - 0.4 - Cloudy 10 - - - -
20/03:30am 13.8 W 2 6 1011.7 - 0.4 - Partly cloudy 10 - - - -
20/03:00am 12.8 CALM 0 0 1011.5 - 0.4 - Mostly cloudy 0.3 - - - -
20/02:48am 13.2 CALM 0 0 1011.7 - 0.4 - Partly cloudy 6 - - - -
20/02:30am 14.2 SSE 3 5 1011.9 - 0.4 - Partly cloudy 10 - - - -
20/02:00am 14.8 SW 5 6 1012.2 - 0.4 - Cloudy 10 - - - -
20/01:30am 14.7 SW 4 5 1012.5 - 0.4 - Cloudy 10 - - - -
20/01:00am 14.8 WSW 4 5 1012.5 - 0.4 - Cloudy 10 - - - -
20/12:37am 14.5 W 5 5 1012.8 - 0.4 - Partly cloudy 10 - - - -
20/12:30am 14.1 W 4 5 1012.9 - 0.4 - Partly cloudy 10 - - - -
20/12:24am 14.1 WNW 4 5 1012.8 - 0.4 - Partly cloudy 10 - - - -
20/12:00am 14.3 CALM 0 0 1012.9 - 0.4 - - 10 - - - -
 
Date/Time
WST
Temp
°C
Wind Pressure Rain since
9am
mm
Weather Cloud Vis
km
Sea
Height
m
Swell
Dir  Spd
kts
Gust
kts
hPa Trend Height
m
Period
s
Dir
19/11:30pm 14.9 CALM 0 0 1013.2 - 0.4 - Partly cloudy 10 - - - -
19/11:00pm 15.4 CALM 0 0 1013.5 - 0.4 - Cloudy 10 - - - -
19/10:30pm 15.2 NE 5 7 1013.9 - 0.4 - Cloudy 10 - - - -
19/10:00pm 15.3 CALM 0 2 1014.2 - 0.4 - Cloudy 10 - - - -
19/09:30pm 15.3 NE 5 6 1014.3 - 0.4 - Partly cloudy 10 - - - -
19/09:00pm 15.4 NE 6 7 1014.5 - 0.4 - Mostly cloudy 10 - - - -
19/08:30pm 15.7 CALM 0 0 1014.3 - 0.4 - Cloudy 10 - - - -
19/08:00pm 15.8 CALM 0 0 1014.1 - 0.4 - Partly cloudy 10 - - - -
19/07:30pm 16.0 SSE 2 4 1014.2 - 0.4 - Cloudy 10 - - - -
19/07:00pm 15.8 S 4 7 1013.9 - 0.4 - Partly cloudy 10 - - - -
19/06:57pm 15.7 SSW 5 7 1013.9 - 0.4 - Partly cloudy 10 - - - -
19/06:30pm 15.8 SW 7 9 1013.8 - 0.4 - Partly cloudy 5 - - - -
19/06:00pm 16.6 SSW 6 9 1013.5 - 0.0 - Cloudy 6 - - - -
19/05:49pm 16.9 SE 5 7 1013.4 - 0.0 - Partly cloudy 6 - - - -
19/05:30pm 17.1 SE 5 7 1013.1 - 0.0 - Partly cloudy 10 - - - -
19/05:03pm 17.4 S 4 7 1012.8 - 0.0 - Partly cloudy 10 - - - -
19/05:00pm 17.4 S 4 7 1012.8 - 0.0 - Partly cloudy 10 - - - -
19/04:38pm 17.6 S 5 9 1012.6 - 0.0 - Cloudy 6 - - - -
19/04:30pm 18.0 S 6 8 1012.6 - 0.0 - Cloudy 10 - - - -
19/04:00pm 18.7 S 6 8 1012.5 - 0.0 - Cloudy 10 - - - -
19/03:30pm 19.4 S 9 12 1012.2 - 0.0 - Cloudy 10 - - - -
19/03:00pm 20.9 S 9 13 1011.9 - 0.0 - Cloudy 10 - - - -
19/02:30pm 22.7 SSE 9 14 1011.7 - 0.0 - Partly cloudy 10 - - - -
19/02:00pm 22.4 SE 11 13 1011.6 - 0.0 - Partly cloudy 10 - - - -
19/01:30pm 21.8 SSE 11 15 1011.5 - 0.0 - Partly cloudy 10 - - - -
19/01:00pm 22.2 SE 9 13 1011.4 - 0.0 - Partly cloudy 10 - - - -
19/12:30pm 23.9 W 8 13 1011.6 - 0.0 - Partly cloudy 10 - - - -
19/12:00pm 25.2 NNW 9 14 1011.7 - 0.0 - Mostly cloudy 10 - - - -
19/11:30am 23.7 NW 6 10 1012.0 - 0.0 - Partly cloudy 10 - - - -
19/11:00am 22.7 NW 6 11 1012.3 - 0.0 - Partly cloudy 10 - - - -
19/10:30am 22.3 W 4 7 1012.5 - 0.0 - Partly cloudy 10 - - - -
19/10:00am 21.9 NNW 5 7 1012.8 - 0.0 - Partly cloudy 10 - - - -
19/09:30am 20.6 NW 6 8 1013.0 - 0.0 - Partly cloudy 10 - - - -
19/09:00am 21.3 NNW 6 9 1013.1 - 0.0 - Partly cloudy 10 - - - -
19/08:30am 19.8 NNW 5 7 1013.2 - 0.0 - Partly cloudy 10 - - - -
19/08:00am 19.1 NNW 6 9 1013.3 - 0.0 - Partly cloudy 10 - - - -
19/07:30am 18.4 NNE 6 8 1013.1 - 0.0 - Partly cloudy 10 - - - -
19/07:00am 18.2 N 5 7 1012.9 - 0.0 - Cloudy 10 - - - -
19/06:30am 16.8 NE 4 6 1012.8 - 0.0 - Partly cloudy 10 - - - -
19/06:00am 14.9 CALM 0 0 1012.7 - 0.0 - Partly cloudy 10 - - - -
19/05:30am 14.4 E 1 3 1012.7 - 0.0 - Partly cloudy 10 - - - -
19/05:00am 14.3 E 3 4 1012.4 - 0.0 - Partly cloudy 9 - - - -
19/04:30am 14.7 NW 3 4 1012.5 - 0.0 - Partly cloudy 10 - - - -
19/04:00am 14.7 CALM 0 0 1012.4 - 0.0 - Partly cloudy 10 - - - -
19/03:30am 14.8 CALM 0 0 1012.3 - 0.0 - Partly cloudy 10 - - - -
19/03:00am 15.0 CALM 0 0 1012.3 - 0.0 - Cloudy 10 - - - -
19/02:30am 14.6 CALM 0 2 1012.1 - 0.0 - Cloudy 10 - - - -
19/02:00am 14.8 NNE 3 4 1012.0 - 0.0 - Cloudy 10 - - - -
19/01:30am 15.3 NNE 3 3 1012.2 - 0.0 - Partly cloudy 10 - - - -
19/01:00am 15.6 ENE 4 5 1012.3 - 0.0 - Partly cloudy 10 - - - -
19/12:30am 15.8 ESE 1 3 1012.5 - 0.0 - Partly cloudy 10 - - - -
19/12:00am 15.9 SE 3 4 1012.3 - 0.0 - Cloudy 10 - - - -
 
Date/Time
WST
Temp
°C
Wind Pressure Rain since
9am
mm
Weather Cloud Vis
km
Sea
Height
m
Swell
Dir  Spd
kts
Gust
kts
hPa Trend Height
m
Period
s
Dir
18/11:30pm 15.5 SE 3 5 1012.4 - 0.0 - Partly cloudy 10 - - - -
18/11:00pm 15.5 CALM 0 0 1012.4 - 0.0 - Cloudy 10 - - - -
18/10:30pm 15.5 CALM 0 0 1012.6 - 0.0 - Cloudy 10 - - - -
18/10:00pm 15.4 CALM 0 0 1012.6 - 0.0 - Cloudy 10 - - - -
18/09:30pm 14.9 SE 1 3 1012.7 - 0.0 - Partly cloudy 10 - - - -
18/09:00pm 15.2 SE 3 4 1012.6 - 0.0 - Cloudy 10 - - - -
18/08:30pm 14.6 SW 4 5 1012.4 - 0.0 - Partly cloudy 10 - - - -
18/08:00pm 15.5 SSE 4 5 1011.6 - 0.0 - - 10 - - - -
18/07:30pm 15.9 SSE 4 4 1011.0 - 0.0 - - 10 - - - -
18/07:00pm 17.0 SSE 6 8 1010.6 - 0.0 - Partly cloudy 10 - - - -
18/06:30pm 17.2 SSE 6 10 1010.1 - 0.0 - Partly cloudy 10 - - - -
18/06:00pm 17.5 S 7 11 1009.3 - 0.0 - Mostly cloudy 10 - - - -
18/05:30pm 18.0 S 9 13 1009.0 - 0.0 - Partly cloudy 10 - - - -
18/05:00pm 18.4 SSW 9 13 1008.4 - 0.0 - Partly cloudy 10 - - - -
18/04:30pm 19.3 SSW 11 14 1008.2 - 0.0 - Partly cloudy 10 - - - -
18/04:00pm 20.7 SSE 10 13 1007.6 - 0.0 - Partly cloudy 10 - - - -
18/03:30pm 21.2 SE 8 11 1007.1 - 0.0 - - 10 - - - -
18/03:00pm 20.5 SE 10 13 1007.2 - 0.0 - Mostly cloudy 10 - - - -
18/02:30pm 20.7 SE 9 14 1007.3 - 0.0 - Partly cloudy 10 - - - -

Other Formats:

Comma delimited format used in spreadsheet applications
http://www.bom.gov.au/fwo/IDW60701/IDW60701.94802.axf

JavaScript Object Notation format (JSON) in row-major order
http://www.bom.gov.au/fwo/IDW60701/IDW60701.94802.json